Time;durP1;ratioP1;P1;durP2;ratioP2;P2;SDS_P1;SDS_P2;PMS_P1;PMS_P2;Temp;Humidity;BMP_temperature;BMP_pressure;BME280_temperature;BME280_humidity;BME280_pressure;Samples;Min_cycle;Max_cycle;Signal;HPM_P1;HPM_P2
2021/11/02 00:05:33;;;;;;;50.20;25.68;;;;;;;6.74;78.22;97819.75;3938237;88;21611;-91
2021/11/02 00:11:35;;;;;;;46.80;25.72;;;;;;;6.62;78.40;97814.62;3893102;88;21035;-91
2021/11/02 00:17:39;;;;;;;48.20;26.62;;;;;;;6.72;78.59;97804.98;4065816;86;21027;-90
2021/11/02 00:23:41;;;;;;;41.40;23.62;;;;;;;6.80;79.01;97801.13;4067915;85;21028;-90
2021/11/02 00:29:45;;;;;;;51.37;26.40;;;;;;;6.83;79.10;97806.59;4047554;85;21138;-91
2021/11/02 00:35:46;;;;;;;44.38;23.27;;;;;;;6.84;78.75;97801.95;4049190;86;21113;-90
2021/11/02 00:41:48;;;;;;;40.17;22.65;;;;;;;6.92;78.97;97794.80;4044484;86;21019;-89
2021/11/02 00:47:52;;;;;;;34.83;19.87;;;;;;;7.05;79.32;97790.61;4078296;86;21981;-89
2021/11/02 00:53:55;;;;;;;32.30;19.42;;;;;;;7.22;79.13;97789.16;4080199;86;21139;-91
2021/11/02 00:59:59;;;;;;;34.60;20.32;;;;;;;7.30;79.21;97788.00;4045305;85;21595;-90
2021/11/02 01:06:01;;;;;;;32.80;19.30;;;;;;;7.37;79.40;97790.20;4042814;86;21043;-90
2021/11/02 01:12:08;;;;;;;43.13;23.70;;;;;;;7.42;79.51;97781.64;4071487;85;21091;-92
2021/11/02 01:18:30;;;;;;;34.20;19.15;;;;;;;7.39;79.32;97769.40;4070627;85;21031;-90
2021/11/02 01:31:32;;;;;;;29.87;17.75;;;;;;;7.39;80.04;97768.04;3940691;88;21132;-91
2021/11/02 01:37:38;;;;;;;29.98;18.67;;;;;;;7.45;80.14;97761.05;3911463;88;21085;-90
2021/11/02 01:43:44;;;;;;;26.85;17.10;;;;;;;7.47;80.64;97762.22;3915588;89;21155;-90
2021/11/02 01:49:54;;;;;;;28.67;18.67;;;;;;;7.51;80.62;97748.62;4076932;85;21127;-91
2021/11/02 01:55:55;;;;;;;45.00;23.98;;;;;;;7.50;80.19;97730.73;4087291;86;21021;-91
2021/11/02 02:02:07;;;;;;;40.60;22.02;;;;;;;7.52;80.51;97726.45;3938511;88;21070;-91
2021/11/02 02:08:43;;;;;;;37.93;21.80;;;;;;;7.59;80.56;97723.77;4090362;85;21032;-90
2021/11/02 02:14:55;;;;;;;37.10;21.25;;;;;;;7.65;80.37;97710.53;3959832;87;21093;-91
2021/11/02 02:21:51;;;;;;;38.70;21.75;;;;;;;7.63;80.71;97708.77;4071482;86;21055;-90
2021/11/02 02:28:21;;;;;;;39.60;23.57;;;;;;;7.66;80.88;97699.25;4082186;86;21050;-91
2021/11/02 02:34:25;;;;;;;39.90;22.32;;;;;;;7.62;80.80;97693.03;4059149;86;21110;-89
2021/11/02 02:40:28;;;;;;;36.05;21.50;;;;;;;7.68;80.87;97700.23;4078547;86;21044;-90
2021/11/02 02:46:33;;;;;;;39.88;23.00;;;;;;;7.72;80.99;97705.11;4050020;86;21031;-90
2021/11/02 02:52:39;;;;;;;37.45;23.75;;;;;;;7.73;80.93;97714.83;4078548;85;21629;-89
2021/11/02 02:58:50;;;;;;;41.47;23.73;;;;;;;7.75;80.93;97701.01;4085264;86;21016;-92
2021/11/02 03:04:55;;;;;;;48.65;27.50;;;;;;;7.72;80.81;97696.34;4070644;86;21034;-90
2021/11/02 03:11:03;;;;;;;51.10;27.67;;;;;;;7.70;80.95;97694.61;4067263;85;21138;-91
2021/11/02 03:17:12;;;;;;;39.13;23.38;;;;;;;7.72;81.07;97684.08;4057579;86;21914;-90
2021/11/02 03:55:11;;;;;;;48.55;27.30;;;;;;;7.75;81.68;97692.84;4045166;85;21532;-90
2021/11/02 04:01:34;;;;;;;47.93;26.70;;;;;;;7.78;81.77;97697.52;4039742;85;36935;-88
2021/11/02 05:56:53;;;;;;;53.45;31.40;;;;;;;7.17;85.52;97592.20;3994482;87;21069;-87
2021/11/02 06:09:23;;;;;;;54.88;31.30;;;;;;;7.13;86.09;97600.35;4014830;87;21557;-89
2021/11/02 06:28:15;;;;;;;50.95;30.62;;;;;;;7.20;86.62;97625.45;3996143;87;21565;-88
2021/11/02 06:34:21;;;;;;;53.70;30.85;;;;;;;7.21;86.63;97637.88;4019938;87;21088;-91
2021/11/02 07:18:39;;;;;;;56.45;33.28;;;;;;;7.48;86.82;97656.81;4008484;87;21045;-89
2021/11/02 08:48:40;;;;;;;55.90;33.80;;;;;;;7.95;88.49;97651.78;3985089;87;21501;-87
2021/11/02 08:54:45;;;;;;;56.00;34.85;;;;;;;7.95;88.57;97644.97;3982381;87;21092;-89
2021/11/02 09:00:47;;;;;;;58.15;34.23;;;;;;;7.98;88.59;97650.24;3968475;87;21124;-89
2021/11/02 09:06:50;;;;;;;57.03;34.18;;;;;;;7.98;88.91;97640.13;3985776;87;21085;-89
2021/11/02 09:12:59;;;;;;;64.42;36.58;;;;;;;8.03;89.04;97646.34;3980011;87;21030;-90
2021/11/02 09:19:01;;;;;;;62.27;39.00;;;;;;;8.05;89.01;97644.78;3976471;87;21042;-89
2021/11/02 09:25:04;;;;;;;67.78;39.42;;;;;;;8.03;89.31;97648.50;3971833;87;21680;-88
2021/11/02 09:31:05;;;;;;;61.20;37.30;;;;;;;8.03;89.46;97644.98;3979537;87;21073;-89
2021/11/02 09:37:26;;;;;;;61.65;36.63;;;;;;;8.03;89.71;97648.50;3960472;87;21077;-90
2021/11/02 09:44:14;;;;;;;65.25;36.93;;;;;;;8.08;89.61;97654.14;3970556;87;21121;-88
2021/11/02 09:51:18;;;;;;;62.85;36.42;;;;;;;8.12;89.82;97655.69;3966899;88;21977;-88
2021/11/02 09:57:46;;;;;;;59.65;37.17;;;;;;;8.14;89.92;97658.81;3960735;87;21725;-88
2021/11/02 10:04:30;;;;;;;56.00;33.73;;;;;;;8.19;89.86;97659.00;3984300;87;21105;-89
2021/11/02 10:10:57;;;;;;;61.95;37.55;;;;;;;8.13;89.96;97660.56;3949255;88;21036;-89
2021/11/02 10:17:21;;;;;;;62.08;38.45;;;;;;;8.16;90.32;97647.52;3969210;87;21037;-90
2021/11/02 10:30:57;;;;;;;59.50;37.10;;;;;;;8.21;90.61;97647.88;3968474;88;21023;-88
2021/11/02 10:37:52;;;;;;;64.47;36.25;;;;;;;8.26;90.82;97648.89;3995320;87;21077;-88
2021/11/02 10:50:38;;;;;;;66.60;39.08;;;;;;;8.37;91.12;97631.14;3993631;87;21048;-90
2021/11/02 11:03:55;;;;;;;55.90;34.45;;;;;;;8.44;91.49;97640.08;3801711;90;21154;-87
2021/11/02 11:09:59;;;;;;;50.43;33.10;;;;;;;8.46;91.44;97633.66;3978085;87;21643;-89
2021/11/02 11:16:27;;;;;;;;;;;;;;;;;;;;;
2021/11/02 11:22:39;;;;;;;57.93;35.98;;;;;;;8.58;92.06;97627.77;3975623;87;21056;-87
2021/11/02 11:28:55;;;;;;;68.37;41.33;;;;;;;8.67;91.96;97636.92;3970556;87;21164;-88
2021/11/02 11:34:57;;;;;;;102.07;57.20;;;;;;;8.63;91.54;97626.61;3973723;87;21098;-88
2021/11/02 11:41:01;;;;;;;143.02;82.22;;;;;;;8.59;91.98;97628.56;3988232;87;21110;-88
2021/11/02 11:47:14;;;;;;;110.88;60.65;;;;;;;8.56;91.75;97621.17;3987373;87;21648;-88
2021/11/02 11:53:20;;;;;;;96.25;51.65;;;;;;;8.55;92.02;97629.92;3973269;88;21003;-88
2021/11/02 11:59:27;;;;;;;76.65;44.60;;;;;;;8.59;92.28;97627.20;3979310;87;21501;-87
2021/11/02 12:05:30;;;;;;;74.75;43.80;;;;;;;8.60;92.51;97630.11;3964484;87;21069;-90
2021/11/02 12:11:35;;;;;;;68.95;44.45;;;;;;;8.63;92.62;97631.47;3977135;87;21503;-88
2021/11/02 12:17:44;;;;;;;74.47;43.98;;;;;;;8.69;92.79;97627.76;3974389;87;21151;-87
2021/11/02 12:23:51;;;;;;;74.15;44.13;;;;;;;8.73;92.68;97628.52;3986240;87;21593;-90
2021/11/02 12:29:53;;;;;;;77.17;44.88;;;;;;;8.70;92.62;97625.22;3986863;87;21056;-88
2021/11/02 12:35:57;;;;;;;76.25;44.95;;;;;;;8.69;92.75;97615.48;3965829;88;21096;-88
2021/11/02 12:41:59;;;;;;;67.47;41.95;;;;;;;8.67;92.93;97621.34;3976097;88;21056;-92
2021/11/02 12:48:04;;;;;;;74.35;40.25;;;;;;;8.66;93.07;97617.03;3971865;87;21081;-87
2021/11/02 12:54:10;;;;;;;65.65;38.02;;;;;;;8.64;93.11;97607.70;3957899;88;21046;-89
2021/11/02 13:00:17;;;;;;;65.05;35.98;;;;;;;8.65;93.34;97603.22;3989779;86;21691;-87
2021/11/02 13:06:21;;;;;;;57.23;34.43;;;;;;;8.65;93.52;97615.49;3990670;87;21044;-90
2021/11/02 13:12:26;;;;;;;55.67;34.27;;;;;;;8.69;93.52;97613.52;3967861;87;21604;-88
2021/11/02 13:18:37;;;;;;;63.87;36.17;;;;;;;8.71;93.80;97617.20;3972769;88;21085;-89
2021/11/02 13:24:42;;;;;;;58.00;35.10;;;;;;;8.73;93.68;97618.97;3970432;87;21143;-87
2021/11/02 13:30:46;;;;;;;55.63;33.30;;;;;;;8.73;93.82;97613.51;3985951;87;21036;-89
2021/11/02 13:37:03;;;;;;;49.80;32.23;;;;;;;8.73;93.86;97614.30;3978372;87;23229;-87
2021/11/02 13:43:05;;;;;;;53.42;33.75;;;;;;;8.78;94.31;97615.26;3974363;87;21568;-90
2021/11/02 13:49:09;;;;;;;52.27;31.02;;;;;;;8.85;94.07;97619.88;3981397;87;21061;-88
2021/11/02 13:55:11;;;;;;;52.48;32.70;;;;;;;8.86;94.20;97619.52;3953488;87;21079;-92
2021/11/02 14:01:47;;;;;;;49.58;32.20;;;;;;;8.86;93.76;97618.73;3980741;87;21073;-93
2021/11/02 14:07:48;;;;;;;50.78;32.63;;;;;;;8.83;93.93;97616.80;3970553;87;21579;-88
2021/11/02 14:13:52;;;;;;;46.37;31.95;;;;;;;8.81;94.18;97620.50;3963127;87;21573;-88
2021/11/02 14:19:53;;;;;;;46.92;30.92;;;;;;;8.81;94.39;97625.95;3979677;87;21149;-88
2021/11/02 14:26:25;;;;;;;51.20;32.93;;;;;;;8.80;94.53;97621.69;3983079;87;21032;-89
2021/11/02 14:32:41;;;;;;;55.38;33.98;;;;;;;8.76;94.19;97618.17;3971267;87;21259;-88
2021/11/02 14:38:46;;;;;;;62.35;36.50;;;;;;;8.68;94.36;97620.73;3982757;87;21025;-88
2021/11/02 14:44:48;;;;;;;67.92;38.38;;;;;;;8.65;94.56;97627.77;4009151;85;144548;-90
2021/11/02 14:50:58;;;;;;;60.63;33.95;;;;;;;8.59;94.34;97626.62;4045052;85;21085;-88
2021/11/02 14:57:27;;;;;;;66.87;35.83;;;;;;;8.52;94.64;97625.26;3988486;87;20997;-88
2021/11/02 15:03:33;;;;;;;53.92;33.15;;;;;;;8.47;94.76;97632.48;3998428;87;21693;-87
2021/11/02 15:09:37;;;;;;;55.10;36.35;;;;;;;8.39;94.46;97630.96;3977716;87;21107;-90
2021/11/02 15:15:39;;;;;;;53.45;32.45;;;;;;;8.31;94.53;97629.98;3995291;86;21048;-87
2021/11/02 15:22:18;;;;;;;53.55;34.35;;;;;;;8.30;94.99;97637.98;3981878;88;21093;-88
2021/11/02 15:28:22;;;;;;;41.75;29.65;;;;;;;8.29;94.86;97640.50;3938841;88;21048;-88
2021/11/02 15:41:20;;;;;;;49.18;29.98;;;;;;;8.21;94.87;97645.73;3966558;88;21123;-87
2021/11/02 15:47:27;;;;;;;48.00;28.87;;;;;;;8.16;95.11;97642.06;3964989;87;21051;-86
2021/11/02 15:53:29;;;;;;;63.63;38.10;;;;;;;8.11;95.30;97646.55;4031479;85;21022;-90
2021/11/02 15:59:45;;;;;;;65.20;43.02;;;;;;;8.11;95.50;97643.81;4023223;85;21048;-89
2021/11/02 16:06:19;;;;;;;55.45;35.33;;;;;;;8.08;95.36;97638.55;4032608;85;21093;-87
2021/11/02 16:12:45;;;;;;;51.68;33.83;;;;;;;8.04;95.45;97640.51;3977869;85;21035;-90
2021/11/02 16:18:57;;;;;;;49.60;32.30;;;;;;;8.05;95.87;97637.20;4037878;85;21125;-87
2021/11/02 16:25:16;;;;;;;44.45;28.67;;;;;;;8.03;95.98;97639.72;4057437;85;21047;-87
2021/11/02 16:31:30;;;;;;;44.53;27.85;;;;;;;8.04;95.96;97647.32;4034729;85;21547;-88
2021/11/02 16:37:47;;;;;;;51.70;31.73;;;;;;;8.13;95.70;97648.30;4019574;85;21565;-88
2021/11/02 16:44:16;;;;;;;50.88;30.40;;;;;;;8.17;95.70;97662.12;4040124;85;21127;-89
2021/11/02 16:50:38;;;;;;;48.95;31.12;;;;;;;8.14;95.67;97674.38;4053043;85;21008;-90
2021/11/02 16:57:01;;;;;;;48.13;32.00;;;;;;;8.03;95.84;97674.96;4041504;85;21117;-90
2021/11/02 17:03:26;;;;;;;;;;;;;;;;;;;;;
2021/11/02 17:09:57;;;;;;;46.30;28.92;;;;;;;8.05;96.26;97695.20;4036819;85;21036;-89
2021/11/02 17:16:25;;;;;;;45.15;26.97;;;;;;;8.10;96.21;97699.50;3946986;86;21741;-88
2021/11/02 17:22:32;;;;;;;43.50;26.35;;;;;;;8.10;96.12;97702.23;4054920;85;21101;-89
2021/11/02 17:35:41;;;;;;;39.80;25.60;;;;;;;8.07;96.23;97713.31;3906170;87;21575;-88
2021/11/02 17:41:49;;;;;;;39.48;25.15;;;;;;;8.09;96.26;97721.89;3989820;87;21064;-89
2021/11/02 17:48:29;;;;;;;42.43;25.92;;;;;;;8.12;96.25;97730.64;3981068;87;21065;-88
2021/11/02 17:55:01;;;;;;;39.60;26.35;;;;;;;8.12;96.24;97733.38;3937804;85;21049;-88
2021/11/02 18:01:13;;;;;;;42.25;26.77;;;;;;;8.08;96.17;97739.39;3993838;85;21075;-91
2021/11/02 18:07:17;;;;;;;45.08;28.57;;;;;;;8.06;96.33;97738.23;3945838;87;21190;-88
2021/11/02 18:20:14;;;;;;;51.65;30.82;;;;;;;8.02;96.35;97745.03;3969070;87;21117;-88
2021/11/02 18:26:23;;;;;;;48.63;30.25;;;;;;;7.98;96.42;97751.07;4045265;85;21075;-91
2021/11/02 18:32:34;;;;;;;36.58;24.32;;;;;;;7.96;96.49;97752.03;4016969;85;21087;-90
2021/11/02 18:38:44;;;;;;;35.88;22.50;;;;;;;7.92;96.35;97747.94;4029744;85;21099;-89
2021/11/02 18:45:01;;;;;;;;;;;;;;;;;;;;;
2021/11/02 18:51:11;;;;;;;37.00;22.73;;;;;;;7.88;96.38;97758.06;4051353;85;21057;-88
2021/11/02 18:57:01;;;;;;;32.17;21.73;;;;;;;7.87;96.46;97765.26;4043014;85;21049;-88
2021/11/02 19:03:12;;;;;;;33.95;23.07;;;;;;;7.87;96.58;97768.77;3956405;87;21078;-93
2021/11/02 19:09:17;;;;;;;34.08;22.65;;;;;;;7.84;96.46;97772.27;3992440;87;21193;-89
2021/11/02 19:15:19;;;;;;;35.88;24.07;;;;;;;7.81;96.52;97776.34;4070908;85;21016;-90
2021/11/02 19:21:20;;;;;;;36.65;23.07;;;;;;;7.77;96.55;97778.26;4060177;85;21045;-89
2021/11/02 19:27:22;;;;;;;37.25;24.43;;;;;;;7.77;96.49;97780.41;4027249;85;21060;-89
2021/11/02 19:33:24;;;;;;;40.55;25.08;;;;;;;7.76;96.55;97787.03;4027940;85;21164;-90
2021/11/02 19:39:26;;;;;;;37.30;23.98;;;;;;;7.76;96.47;97788.97;4057263;85;21571;-90
2021/11/02 19:45:28;;;;;;;41.02;25.05;;;;;;;7.75;96.52;97800.44;4042011;85;21007;-92
2021/11/02 19:51:31;;;;;;;44.45;26.93;;;;;;;7.71;96.46;97806.47;4066958;85;21082;-90
2021/11/02 19:57:35;;;;;;;40.23;26.65;;;;;;;7.69;96.41;97810.73;4062394;85;21592;-90
2021/11/02 20:03:38;;;;;;;47.10;28.05;;;;;;;7.69;96.67;97818.33;3975133;87;21052;-89
2021/11/02 20:09:44;;;;;;;45.65;27.70;;;;;;;7.69;96.61;97821.63;3892590;88;21094;-88
2021/11/02 20:15:50;;;;;;;53.15;28.42;;;;;;;7.66;96.63;97836.01;3980526;87;21126;-90
2021/11/02 20:21:56;;;;;;;;;;;;;;;7.61;96.54;97834.44;3970146;87;21063;-91
2021/11/02 20:28:02;;;;;;;48.70;28.55;;;;;;;7.57;96.99;97838.31;3984744;87;20161;-89
2021/11/02 20:34:06;;;;;;;47.38;29.27;;;;;;;7.58;96.81;97846.09;4033661;85;21969;-89
2021/11/02 20:40:10;;;;;;;54.40;30.60;;;;;;;7.58;96.69;97850.78;4049664;85;21060;-88
2021/11/02 20:46:18;;;;;;;51.73;30.32;;;;;;;7.56;96.87;97857.19;4073989;85;21136;-92
2021/11/02 20:52:21;;;;;;;47.60;29.02;;;;;;;7.53;96.93;97859.31;4030842;85;21025;-88
2021/11/02 20:58:30;;;;;;;51.83;29.25;;;;;;;7.53;96.82;97860.67;4016223;85;21102;-90
2021/11/02 21:04:32;;;;;;;52.75;31.27;;;;;;;7.48;96.92;97861.83;4038365;85;21059;-90
2021/11/02 21:10:41;;;;;;;46.95;28.15;;;;;;;7.50;97.08;97869.61;4072577;85;21211;-91
2021/11/02 21:16:44;;;;;;;32.67;20.75;;;;;;;7.51;96.99;97870.59;4055914;85;21071;-90
2021/11/02 21:22:49;;;;;;;46.48;27.02;;;;;;;7.49;97.26;97872.91;3983376;87;21076;-90
2021/11/02 21:28:54;;;;;;;49.85;30.32;;;;;;;7.48;97.04;97877.38;4022162;85;21056;-90
2021/11/02 21:34:56;;;;;;;51.92;31.17;;;;;;;7.45;97.10;97878.92;4055311;85;21028;-90
2021/11/02 21:41:02;;;;;;;57.13;33.38;;;;;;;7.42;97.20;97881.02;4045426;85;21048;-90
2021/11/02 21:47:15;;;;;;;41.18;23.92;;;;;;;7.41;97.10;97886.84;3980571;87;21031;-88
2021/11/02 21:53:34;;;;;;;50.17;30.23;;;;;;;7.39;97.31;97880.42;4035919;85;21028;-89
2021/11/02 21:59:51;;;;;;;51.30;29.75;;;;;;;7.42;97.47;97888.42;3982214;87;21196;-90
2021/11/02 22:05:53;;;;;;;50.52;30.55;;;;;;;7.43;97.71;97900.88;3989991;87;21048;-89
2021/11/02 22:11:55;;;;;;;44.05;27.70;;;;;;;7.46;97.68;97887.86;3982922;87;21591;-90
2021/11/02 22:17:56;;;;;;;42.05;27.00;;;;;;;7.51;97.61;97892.95;3974712;87;21123;-89
2021/11/02 22:23:58;;;;;;;54.85;29.37;;;;;;;7.54;97.53;97907.16;3987844;87;21127;-89
2021/11/02 22:30:01;;;;;;;48.02;29.55;;;;;;;7.44;97.39;97909.23;4043331;85;21534;-88
2021/11/02 22:36:04;;;;;;;52.70;31.30;;;;;;;7.38;97.33;97911.55;4039613;85;21558;-88
2021/11/02 22:42:07;;;;;;;55.60;32.58;;;;;;;7.31;97.30;97916.16;4062834;85;21083;-90
2021/11/02 22:48:10;;;;;;;68.20;37.67;;;;;;;7.29;97.61;97921.20;4040577;85;21106;-90
2021/11/02 22:54:16;;;;;;;72.85;39.00;;;;;;;7.31;97.73;97926.45;4069207;85;21520;-91
2021/11/02 23:00:43;;;;;;;50.40;30.32;;;;;;;7.35;97.91;97931.94;3965460;87;21102;-89
2021/11/02 23:06:45;;;;;;;55.28;30.43;;;;;;;7.43;97.92;97922.08;3989758;87;22487;-88
2021/11/02 23:12:47;;;;;;;46.30;27.50;;;;;;;7.48;97.75;97932.62;3992361;88;21076;-89
2021/11/02 23:18:52;;;;;;;51.70;28.45;;;;;;;7.49;97.59;97930.66;4038742;85;21084;-90
2021/11/02 23:25:05;;;;;;;44.40;28.52;;;;;;;7.49;97.58;97934.75;4049369;85;21009;-87
2021/11/02 23:31:08;;;;;;;44.98;28.32;;;;;;;7.47;97.33;97939.81;3985767;87;21115;-89
2021/11/02 23:37:10;;;;;;;48.15;29.52;;;;;;;7.31;97.39;97942.03;4038580;85;21169;-88
2021/11/02 23:43:14;;;;;;;50.28;29.05;;;;;;;7.30;97.67;97953.48;4047382;85;21021;-89
2021/11/02 23:49:19;;;;;;;47.43;29.65;;;;;;;7.30;97.80;97963.02;3982764;87;21089;-89
2021/11/02 23:55:21;;;;;;;63.33;36.93;;;;;;;7.26;97.78;97964.95;3974575;87;21122;-88
